Witamy w enduhub !

enduhub
enduhub [\indu'hab, en-\].
endurance [\in-ˈdu̇r-ən(t)s, -ˈdyu̇r-, en-\] : zdolność do długotrwałego wykonywania czynności powszechnie uważanej za trudną.
hub [\ˈhəb\] : centralne i najbardziej aktywne miejsce lub element.

Szukasz wyników po różnych stronach ?

Znajdź swoje wyniki, sprawdź znajomych.

http://enduhub.com to wyszukiwarka wyników zawodów sportowych.Znajdziesz u nas wyniki biegów, triathlonu,kolarstwa,pływania i innych.


Szukasz wyników po różnych stronach ?

Zarejestruj teraz ! Dlaczego warto ?

  • Możesz dodawać wyniki do swojej prywatnej listy.
  • Możesz sprawdzić swój poziom na tle rówieśników - Enduhub Performace Index.
  • Możesz zgłaszać wyniki do załadowania - Zgłoś wyniki.
  • Możesz planować wynik i starty w kalendarzu - Planuj.
  • Możesz założyć drużynę i zaprosić znajomych - Zespoły.
  • Stay tuned ..... !

V Stalowa Dycha

Wyniki - 9 lipca 2017, Stalowa Wola

Cityzen_ General
Msc
Nr
Rok
Kat
M
K
-
-
-
#1 1 miejsce i złoty medal. Gratulacje !11Kozłowski Artur1985M30-391SieradzSanprobi TEAM00:31:1300:31:1400:03:071-
#2 2 miejsce i srebrny medal. Gratulacje !2101Kern Artur1980M30-392HrubieszówUnia Hrubieszów00:31:3300:31:3400:03:092-
#3 1 miejsce i złoty medal. Gratulacje !3170Noga Damian1989M16-291KłodaGRUPA AZOTY Siarkopol00:31:4200:31:4300:03:103-
#4 3rd place and bronze medal. Congratulations ! 4118Kubiec Dawid1987M30-393StarachowiceJuventa00:31:5300:31:5400:03:114-
#5 2 miejsce i srebrny medal. Gratulacje !5202Połeć Damian1997M16-292Ruda ŚląskaTEAM POŁEĆ00:32:1600:32:1700:03:135-
#6 6398Khomych Hryhorii1986M30-394ŁuckSK Kovel LKB Rudnik00:33:5500:33:5600:03:236-
#7 3rd place and bronze medal. Congratulations ! 7330Latyshev Yuriy1992M16-293LwiwUltra00:35:1000:35:1200:03:317-
#8 1 miejsce i złoty medal. Gratulacje !829Ćwik Hubert1977M40-491ZamośćAgros Zamość00:35:2100:35:2200:03:328-
#9 2 miejsce i srebrny medal. Gratulacje !9313Zmitrowicz Bogdan1977M40-492Nowa DębaZMITEK TEAM00:35:2800:35:3000:03:329-
#10 1084Jamioł Michał1980M30-395Kielce00:35:3400:35:3600:03:3310-
#11 117Banaś Mateusz1986M30-396JarosławKPP Jarosław00:35:4600:35:4700:03:3411-
#12 12275Turczyn Mariusz ..1984M30-397Majdan KrolewskiGanador Team00:35:4700:35:4800:03:3412-
#13 13103Kiper Maciej1978M30-398JaroslawPerfect Runner Team00:35:4800:35:4900:03:3413-
#14 3rd place and bronze medal. Congratulations ! 14184Pasieczny Robert1977M40-493GorzyceFartlek GO00:35:5500:35:5600:03:3514-
#15 1 miejsce i złoty medal. Gratulacje !152Albrycht Katarzyna1982K30-391Krościenko Wyżne00:36:1000:36:1000:03:36-1
#16 16331Dovbush Roman1985M30-399LwówUltra00:36:3100:36:3300:03:3915-
#17 2 miejsce i srebrny medal. Gratulacje !17284Waśniewska Karolina1980K30-392RADOMBIEGIEM RADOM!00:36:3800:36:4100:03:40-2
#18 1 miejsce i złoty medal. Gratulacje !1868Golba Kasia1989K16-291MielecAZS AWF Katowice/1SECOND team00:36:4500:36:4600:03:40-3
#19 19312Zioło Mirosław1973M40-494KraśnikKRASNIK BIEGA00:36:5300:36:5800:03:4116-
#20 20203Połeć Mirosław1968M40-495Ruda śląskaTEAM POŁEĆ00:37:0600:37:0700:03:4217-
#21 3rd place and bronze medal. Congratulations ! 2181Jakubczak Aleksandra1982K30-393ZamośćAgros Zamość00:37:1400:37:1600:03:43-4
#22 2275Gut Jacek1991M16-294HuciskoOSP Hucisko/ Black Jack Team00:37:2100:37:2400:03:4418-
#23 2321Buryło Mateusz1991M16-295JodłówkaPerfect Runner Team00:37:3600:37:3800:03:4519-
#24 2410Baran Jan1986M30-3910WarszawaTeam Kopeć00:37:4000:37:4300:03:4620-
#25 25208Prajzner Marta1981K30-394Krościenko Wyżne00:37:4300:37:4500:03:46-5
#26 2671Grabiec Marcin1983M30-3911KolbuszowaKolbuszowa00:37:5300:37:5500:03:4721-
#27 27199Płaneta Marcin1971M40-496TARNOBRZEGWITAR TARNOBRZEG00:37:5300:37:5600:03:4722-
#28 28210Proszowski Piotr1972M40-497Stalowa WolaStalowowolski Klub Begacza00:38:0100:38:0300:03:4823-
#29 29302Zając Tomasz1978M30-3912KrzeszowiceKT Water Knights Zabierzów00:38:0300:38:0600:03:4824-
#30 30397Panasiuk Siergiej1977M40-498KovelSK Kovel - LKB Rudnik00:38:1000:38:1100:03:4925-
#31 1 miejsce i złoty medal. Gratulacje !31350Kamola Kazimierz1960M50-591PuławyChemik Noxy Puławy00:38:1000:38:1200:03:4926-
#32 325Bal Jakub1989M16-296KrakówLos Trepos Companieros00:38:1200:38:1300:03:4927-
#33 33295Wójs Grzegorz1982M30-3913Stalowa Wola00:38:1900:38:2200:03:5028-
#34 2 miejsce i srebrny medal. Gratulacje !34204Połoński Andrzej1966M50-592RADOMBIEGIEM RADOM!00:38:2000:38:2300:03:5029-
#35 35185Paśko Paweł1986M30-3914Rzeszów00:38:2000:38:2400:03:5030-
#36 2 miejsce i srebrny medal. Gratulacje !36319Lupa Beata1990K16-292ŁapyUks olimp łapy00:38:2400:38:2500:03:50-6
#37 3rd place and bronze medal. Congratulations ! 3788Jarząbek Sabina1993K16-293NiestachowKKL KIELCE/ AZS UJK KIELCE00:38:2700:38:2800:03:50-7
#38 38211Ptak Kamil1999M16-297Stalowa Wola00:38:2700:38:2900:03:5031-
#39 39131Łeptuch Tomasz1980M30-3915KomorówSTALOWOWOLSKI KLUB BIEGACZA00:38:3000:38:3300:03:5132-
#40 40294Wójcik Tomasz1979M30-3916GorzyceFARTLEK GO00:38:3100:38:3600:03:5133-
#41 41116Kruba Marcin1987M30-3917JarosławJarosławska Grupa Biegowa "Sokół"00:38:3700:38:3900:03:5134-
#42 42172Nowak Marcin1982M30-3918Stalowa WolaStalowowolski Klub Biegacza00:38:4400:38:4800:03:5235-
#43 3rd place and bronze medal. Congratulations ! 43375Kaspeckowicz Edward1966M50-593KrosnoKKB MOSiR Krosno00:38:4900:38:5300:03:5336-
#44 44370Ukhanov Oleksiy1991M16-298KRAŚNIKWWW.AGAT.EU00:38:5400:38:5900:03:5337-
#45 45296Wojtak Mariusz1971M40-499Wólka TanewskaPlaneta Nisko00:38:5600:38:5900:03:5338-
#46 4682Jakubik Mirosław1962M50-594ZaleszanyFARTLEK GO00:38:5900:39:0200:03:5439-
#47 4766Godek Gerard1960M50-595Górno00:39:0100:39:0200:03:5440-
#48 48300Wywłoka Paulina1990K16-294Wierzbnawww.treningfizjoterapia.pl00:39:0100:39:0300:03:54-8
#49 1 miejsce i złoty medal. Gratulacje !49352Brodacki Waldemar1955M60-691PuławyChemik Noxy Puławy00:39:0600:39:1400:03:5541-
#50 5067Gołąbek Paweł1984M30-3919Krzątka00:39:3700:39:3700:03:5742-
#51 2 miejsce i srebrny medal. Gratulacje !5149Dryps Ryszard1957M60-692JelnaNowosarzyńska Grupa Biegowa00:39:4500:39:4600:03:5843-
#52 52151Mazur Marek1967M50-596PiasecznoRCZPI00:39:4500:39:4700:03:5844-
#53 5343Delekta Jan1973M40-4910ŁowiskoDj00:39:4600:39:4800:03:5845-
#54 54174Oczkowski Roman1964M50-597Stalowa WolaAmator00:40:0400:40:0800:04:0046-
#55 55349Klóska Bogdan1970M40-4911Horyniec-ZdrójHorynieckie Aniołki00:40:0500:40:0900:04:0047-
#56 56371Garbacik Jacek1967M50-598Stalowa WolaSKB Stalowa Wola00:40:3100:40:3400:04:0348-
#57 57278Urbański Zbigniew1966M50-599Nowa DębaZMITEK TEAM00:40:3300:40:3700:04:0349-
#58 58189Pempuś Bernard1999M16-299PrzemyślUKS Tempo 500:40:4000:40:4200:04:0450-
#59 5986Jargilo Robert1976M40-4912JastkowiceSKB Stalowa Wola00:40:4000:40:4400:04:0451-
#60 60387Grabda Karol1978M30-3920MirówBIEGIEM RADOM!00:40:4100:40:4400:04:0452-
#61 61215Rogowski Kuba2001M16-2910Brzóza KrólewskaActive Team Brzóza Królewska00:40:5300:41:0300:04:0653-
#62 62108Korzeniowski Tomasz1983M30-3921TarnobrzegFartlek GO00:41:0200:41:0900:04:0654-
#63 63303Zakościelny Marcin1970M40-4913Lublinwieś tańczy i biega00:41:0600:41:1100:04:0755-
#64 64304Zaręba Filip1993M16-2911MielecZabiegani Mielec00:41:1200:41:1300:04:0756-
#65 65347Kornaga Janusz1962M50-5910Horyniec Zdrój00:41:1100:41:1400:04:0757-
#66 66318Piekarz Mariusz1975M40-4914PrzędzelSKB Stalowa Wola00:41:2100:41:2400:04:0858-
#67 6741Delekta Dariusz1980M30-3922ŁowiskoDelnoVa00:41:2100:41:2400:04:0859-
#68 68338Laskowski Norbert1995M16-2912Stalowa Wola00:41:0700:41:2600:04:0860-
#69 69228Siembida Małgorzata1978K30-395UlanówStalowowolski Klub Biegacza00:41:2700:41:3000:04:08-9
#70 1 miejsce i złoty medal. Gratulacje !70129Lange Beata1977K40-491BiłgorajBiłgoraj Biega00:41:2800:41:3200:04:09-10
#71 71258Szabat Wiesław1960M50-5911Annopol00:41:3600:41:3900:04:0961-
#72 72322Kmuk Tomasz1985M30-3923Padew Narodowa00:41:4100:41:5000:04:1062-
#73 7318Buczek Sławomir1971M40-4915Stalowa Wola00:41:3300:41:5000:04:1063-
#74 7489Jodłowski Andrzej1978M30-3924Czudec00:41:4800:41:5200:04:1164-
#75 75394Sujdak Grzegorz1968M40-4916ŻYRAKÓWTEAM DĘBICA00:41:5900:42:0000:04:1165-
#76 76366Łukasiewicz Sebastian1988M16-2913Miedziana Góra00:41:5800:42:0000:04:1166-
#77 7754Dziedzic Witold1977M40-4917RzeszówPrzebiegli jak węże00:41:5800:42:0100:04:1267-
#78 7890Jung Damian1997M16-2914Iwonicz00:42:1400:42:1600:04:1368-
#79 79200Plewa Mateusz1982M30-3925Janów Lubelski00:42:0600:42:1600:04:1369-
#80 80381Pyclik Jan1965M50-5912Dąbrowa Rzeczycka00:42:1600:42:1700:04:1370-
#81 81286Wegiera Andrzej1974M40-4918Abramowice PrywatneLubelska Grupa Triathlonu00:42:1900:42:2000:04:1371-
#82 82227Siek Kazimierz1969M40-4919Zabrnie00:42:2100:42:2500:04:1472-
#83 83261Szepieniec Katarzyna1990K16-295RzeszówRzeszowskie Gazele i Gepardy00:42:2300:42:2600:04:14-11
#84 8425Chruściel Michał1987M30-3926GorzyceFartlek GO00:42:2600:42:3100:04:1573-
#85 85293Wójcik Marek1966M50-5913Opatów00:42:3100:42:3500:04:1574-
#86 8679Jagiełło Grzesiek1970M40-4920NiskoPlaneta Nisko00:42:2900:42:3600:04:1575-
#87 8748Drozd Sławek1981M30-3927Borek WielkiJak nie MY to kto? Ropczyce00:42:2800:42:3700:04:1576-
#88 8858Filipiński Bartosz1979M30-3928ŁańcutBez Klubb00:42:3100:42:3800:04:1577-
#89 89157Mucha Janusz1960M50-5914Stalowa wolastalowowolski klub biegacza skb stalowa00:42:3300:42:4300:04:1678-
#90 90250Sowa Tomasz1974M40-4921Głogów małopolski00:42:3600:42:4300:04:1679-
#91 91378Tabian Krzysztof1972M40-4922NISKOPlaneta Nisko00:42:3800:42:4700:04:1680-
#92 92246Sobiło Dawid1999M16-2915Pysznica00:42:4800:42:5700:04:1781-
#93 2 miejsce i srebrny medal. Gratulacje !93346Gajek Magdalena1974K40-492Lublinwieś tańcy i biega00:42:5700:43:0200:04:18-12
#94 9460Gajek Grzegorz1979M30-3929Czółnawieś tańczy i biega00:42:5700:43:0300:04:1882-
#95 95362Uliczny Adam1969M40-4923LublinLubelska Grupa Triathlonu00:43:0400:43:0800:04:1883-
#96 96112Kowalski Tomasz1984M30-3930Stalowa WolaMixel00:43:0400:43:0900:04:1884-
#97 97132Leziak Wojciech1968M40-4924WilkołazFŁT Kraśnik00:43:0300:43:1300:04:1985-
#98 98279Walania Kinga1983K30-396Głogów Młp.TKKF Sokół00:43:1300:43:1500:04:19-13
#99 99360Skobel Tomasz1976M40-4925RadomBIEGIEM RADOM!00:43:2300:43:2700:04:2086-
#100 10014Borek Rafał1982M30-3931Tarnobrzeg00:43:2400:43:4000:04:2187-

Google Play

wyniki sporty wytrzymałośćiowe, bieganie, kolarstwo, MTB, triatlon, pływanie, duathlon, maraton, multisport poznanbiega.pl http://www.cityzenklub.pl http://12tri.pl ligabiegowa.pl zawody & wyniki w jednym miejscu

Ta strona używa Cookies. Dowiedz się więcej o celu ich używania - przeczytaj naszą politykę prywatności.Korzystając ze strony wyrażasz zgodę na używanie cookie, zgodnie z aktualnymi ustawieniami przeglądarki.

enduhub.com jest thebeściak więc się zgadzam ! Polityka prywatności